Mariella — OITI — position and weather

sailwx.info

Track history (hours):
 
Tides and Currents Weather Stations Pressure Air Temp Water Temp Dewpoint Dewpoint Depression Visibility Wind Speed Wind Dir Waves Ship Positions

Mariella

Last reported at 2017-Nov-19 23:36 UTC. Time now 2017-Nov-22 07:01 UTC.
Position N 59°38' E 020°55'.

Length 177 m; draft 6.7 m.

Type: Passenger vessel. MMSI: 230181000.

Date/timePositionNaut miles runAvg speedWind from/ knotsBaromVisibWave heightAir tempDewpointWater temp
2017-Nov-19 23:36N 59°38' E 020°55'217.2
2017-Nov-19 23:30N 59°38' E 020°59'817.1
2017-Nov-19 23:00N 59°36' E 021°15'817.0
2017-Nov-19 22:31N 59°34' E 021°31'1117.0
2017-Nov-19 21:53N 59°32' E 021°52'1016.9
2017-Nov-19 21:18N 59°34' E 022°11'2017.1
2017-Nov-19 20:07N 59°38' E 022°50'217.1
2017-Nov-19 20:00N 59°38' E 022°54'917.3
2017-Nov-19 19:31N 59°40' E 023°10'917.3
2017-Nov-19 19:00N 59°42' E 023°27'917.4
2017-Nov-19 18:31N 59°44' E 023°44'917.4
2017-Nov-19 18:00N 59°46' E 024°01'918.0
2017-Nov-19 17:30N 59°49' E 024°18'816.9
2017-Nov-19 17:00N 59°53' E 024°33'917.5
2017-Nov-19 16:30N 59°57' E 024°48'816.5
2017-Nov-19 16:00N 60°04' E 024°58'611.9
2017-Nov-19 15:30N 60°10' E 024°58'0 0.3
2017-Nov-19 14:59N 60°10' E 024°58'0 0.0
2017-Nov-19 14:29N 60°10' E 024°58'0 0.0
2017-Nov-19 13:59N 60°10' E 024°58'0 0.0
2017-Nov-19 13:29N 60°10' E 024°58'0 0.0
2017-Nov-19 12:59N 60°10' E 024°58'0 0.0
2017-Nov-19 12:29N 60°10' E 024°58'0 0.0
2017-Nov-19 11:59N 60°10' E 024°58'0 0.0
2017-Nov-19 11:29N 60°10' E 024°58'0 0.0
2017-Nov-19 10:59N 60°10' E 024°58'0 0.0
2017-Nov-19 10:29N 60°10' E 024°58'0 0.0
2017-Nov-19 09:59N 60°10' E 024°58'0 0.0
2017-Nov-19 09:26N 60°10' E 024°58'0 0.0
2017-Nov-19 08:59N 60°10' E 024°58'0 0.0
2017-Nov-19 08:29N 60°10' E 024°58'0 0.8
2017-Nov-19 08:01N 60°10' E 024°58'714.3
2017-Nov-19 07:30N 60°03' E 024°57'815.9
2017-Nov-19 07:00N 59°57' E 024°46'816.9
2017-Nov-19 06:30N 59°52' E 024°32'917.1
2017-Nov-19 05:59N 59°49' E 024°16'918.0
2017-Nov-19 05:30N 59°46' E 023°59'918.3
2017-Nov-19 05:00N 59°44' E 023°42'918.2
2017-Nov-19 04:30N 59°41' E 023°24'918.3
2017-Nov-19 04:00N 59°40' E 023°06'2018.3
2017-Nov-19 02:55N 59°35' E 022°28'818.3
2017-Nov-19 02:30N 59°34' E 022°13'1518.1
2017-Nov-19 01:42N 59°32' E 021°45'418.4
2017-Nov-19 01:28N 59°33' E 021°36'918.4
2017-Nov-19 01:00N 59°34' E 021°20'918.2
2017-Nov-19 00:30N 59°36' E 021°02'4511.7
2017-Nov-18 20:40N 59°57' E 019°43'717.5
2017-Nov-18 20:17N 59°52' E 019°33'517.5
2017-Nov-18 20:00N 59°48' E 019°27'917.3
2017-Nov-18 19:30N 59°44' E 019°12'816.9
2017-Nov-18 19:00N 59°40' E 018°57'611.4
2017-Nov-18 18:30N 59°37' E 018°48'612.4
2017-Nov-18 18:00N 59°34' E 018°37'510.2
2017-Nov-18 17:28N 59°30' E 018°29'511.7
2017-Nov-18 17:00N 59°26' E 018°24'4 7.9
2017-Nov-18 16:30N 59°22' E 018°25'510.5
2017-Nov-18 16:00N 59°21' E 018°14'5 9.6
2017-Nov-18 15:30N 59°19' E 018°06'0 0.2
2017-Nov-18 15:00N 59°19' E 018°06'0 0.0
2017-Nov-18 14:30N 59°19' E 018°06'0 0.0
2017-Nov-18 14:00N 59°19' E 018°06'0 0.0
2017-Nov-18 13:30N 59°19' E 018°06'0 0.0
2017-Nov-18 13:00N 59°19' E 018°06'0 0.0
2017-Nov-18 12:30N 59°19' E 018°06'0 0.0
2017-Nov-18 12:00N 59°19' E 018°06'0 0.0
2017-Nov-18 11:30N 59°19' E 018°06'0 0.0
2017-Nov-18 11:00N 59°19' E 018°06'0 0.0
2017-Nov-18 10:30N 59°19' E 018°06'0 0.0
2017-Nov-18 10:00N 59°19' E 018°06'0 0.0
2017-Nov-18 09:30N 59°19' E 018°06'0 0.0
2017-Nov-18 09:00N 59°19' E 018°06'4 7.1
2017-Nov-18 08:30N 59°20' E 018°12'611.3
2017-Nov-18 08:00N 59°22' E 018°23'2 4.9
2017-Nov-18 07:30N 59°24' E 018°26'4 7.7
2017-Nov-18 07:00N 59°28' E 018°26'510.3
2017-Nov-18 06:30N 59°32' E 018°33'511.0
2017-Nov-18 06:00N 59°35' E 018°42'612.5
2017-Nov-18 05:30N 59°38' E 018°52'611.7
2017-Nov-18 05:00N 59°42' E 019°02'815.1
2017-Nov-18 04:30N 59°45' E 019°15'815.4
2017-Nov-18 04:00N 59°49' E 019°28'815.5
2017-Nov-18 03:30N 59°55' E 019°39'4210.8
2017-Nov-17 23:38N 59°39' E 020°56'217.2
2017-Nov-17 23:31N 59°38' E 020°60'917.3
2017-Nov-17 23:01N 59°36' E 021°16'816.8
2017-Nov-17 22:31N 59°34' E 021°33'916.8
2017-Nov-17 21:59N 59°32' E 021°50'917.0
2017-Nov-17 21:28N 59°33' E 022°07'2517.0
2017-Nov-17 20:01N 59°38' E 022°54'016.8
2017-Nov-17 20:00N 59°38' E 022°55'816.8
2017-Nov-17 19:31N 59°40' E 023°11'917.1
2017-Nov-17 19:00N 59°42' E 023°28'917.1
2017-Nov-17 18:31N 59°44' E 023°44'917.1
2017-Nov-17 18:00N 59°46' E 024°01'917.4
2017-Nov-17 17:29N 59°49' E 024°18'817.2
2017-Nov-17 17:01N 59°53' E 024°32'917.4
2017-Nov-17 16:31N 59°57' E 024°47'816.2
2017-Nov-17 16:01N 60°03' E 024°57'612.7
2017-Nov-17 15:31N 60°10' E 024°58'0 0.2
2017-Nov-17 14:59N 60°10' E 024°58'0 0.0
2017-Nov-17 14:26N 60°10' E 024°58'0 0.0
2017-Nov-17 13:59N 60°10' E 024°58'0 0.0
2017-Nov-17 13:29N 60°10' E 024°58'0 0.0
2017-Nov-17 12:59N 60°10' E 024°58'0 0.0
2017-Nov-17 12:29N 60°10' E 024°58'0 0.0
2017-Nov-17 11:59N 60°10' E 024°58'0 0.0
2017-Nov-17 11:29N 60°10' E 024°58'0 0.0
2017-Nov-17 10:59N 60°10' E 024°58'0 0.0
2017-Nov-17 10:29N 60°10' E 024°58'0 0.0
2017-Nov-17 09:59N 60°10' E 024°58'0 0.0
2017-Nov-17 09:29N 60°10' E 024°58'0 0.0
2017-Nov-17 08:59N 60°10' E 024°58'0 0.0
2017-Nov-17 08:29N 60°10' E 024°58'0 0.7
2017-Nov-17 08:00N 60°10' E 024°58'714.5
2017-Nov-17 07:30N 60°02' E 024°57'917.3
2017-Nov-17 07:00N 59°56' E 024°45'918.1
2017-Nov-17 06:30N 59°52' E 024°29'1218.2
2017-Nov-17 05:51N 59°48' E 024°07'618.4
2017-Nov-17 05:31N 59°46' E 023°54'918.4
2017-Nov-17 05:00N 59°44' E 023°37'918.2
2017-Nov-17 04:30N 59°42' E 023°19'918.2
2017-Nov-17 04:00N 59°39' E 023°02'1718.2
2017-Nov-17 03:05N 59°36' E 022°29'218.1
2017-Nov-17 02:58N 59°35' E 022°25'1618.2
2017-Nov-17 02:05N 59°32' E 021°54'218.3
2017-Nov-17 01:59N 59°32' E 021°51'918.5
2017-Nov-17 01:30N 59°33' E 021°33'918.5
2017-Nov-17 01:00N 59°35' E 021°16'5211.9
2017-Nov-16 20:39N 59°57' E 019°42'317.5
2017-Nov-16 20:28N 59°54' E 019°38'817.5
2017-Nov-16 20:00N 59°48' E 019°27'917.2
2017-Nov-16 19:30N 59°44' E 019°12'917.1
2017-Nov-16 19:00N 59°40' E 018°57'611.4
2017-Nov-16 18:30N 59°37' E 018°48'612.4
2017-Nov-16 18:00N 59°34' E 018°37'510.2
2017-Nov-16 17:31N 59°30' E 018°29'611.4
2017-Nov-16 17:00N 59°26' E 018°24'4 7.7
2017-Nov-16 16:30N 59°22' E 018°24'510.5
2017-Nov-16 16:00N 59°21' E 018°14'5 9.1
2017-Nov-16 15:29N 59°19' E 018°06'0 0.1
2017-Nov-16 14:59N 59°19' E 018°06'0 0.0
2017-Nov-16 14:29N 59°19' E 018°06'0 0.0
2017-Nov-16 13:53N 59°19' E 018°06'0 0.0
2017-Nov-16 13:23N 59°19' E 018°06'0 0.0
2017-Nov-16 12:53N 59°19' E 018°06'0 0.0
2017-Nov-16 12:29N 59°19' E 018°06'0 0.0
2017-Nov-16 11:53N 59°19' E 018°06'0 0.0
2017-Nov-16 11:29N 59°19' E 018°06'0 0.0
2017-Nov-16 10:59N 59°19' E 018°06'0 0.0
2017-Nov-16 10:23N 59°19' E 018°06'0 0.0
2017-Nov-16 09:59N 59°19' E 018°06'0 0.0
2017-Nov-16 09:29N 59°19' E 018°06'0 0.0
2017-Nov-16 09:00N 59°19' E 018°06'4 7.2
2017-Nov-16 08:30N 59°20' E 018°12'510.9
2017-Nov-16 08:00N 59°22' E 018°22'3 5.2
2017-Nov-16 07:30N 59°24' E 018°26'3 5.6
2017-Nov-16 07:00N 59°26' E 018°30'611.3
2017-Nov-16 06:30N 59°32' E 018°33'511.0
2017-Nov-16 06:00N 59°35' E 018°42'612.5
2017-Nov-16 05:30N 59°38' E 018°52'611.9
2017-Nov-16 05:00N 59°42' E 019°01'715.0
2017-Nov-16 04:31N 59°45' E 019°15'815.1
2017-Nov-16 04:01N 59°49' E 019°27'815.5
2017-Nov-16 03:30N 59°54' E 019°38'4210.9
2017-Nov-15 23:38N 59°38' E 020°56'217.2
2017-Nov-15 23:30N 59°38' E 020°60'917.2
2017-Nov-15 23:00N 59°36' E 021°16'917.4
2017-Nov-15 22:31N 59°34' E 021°33'917.4
2017-Nov-15 22:00N 59°32' E 021°50'917.4
2017-Nov-15 21:28N 59°33' E 022°08'2117.5
2017-Nov-15 20:15N 59°38' E 022°50'417.6
2017-Nov-15 20:01N 59°39' E 022°57'917.5
2017-Nov-15 19:30N 59°40' E 023°14'816.9
2017-Nov-15 19:00N 59°42' E 023°31'917.0
2017-Nov-15 18:30N 59°45' E 023°47'917.1
2017-Nov-15 18:00N 59°47' E 024°04'817.2
2017-Nov-15 17:30N 59°49' E 024°20'917.1
2017-Nov-15 17:00N 59°53' E 024°35'817.0
2017-Nov-15 16:30N 59°58' E 024°49'816.6
2017-Nov-15 16:01N 60°05' E 024°58'510.2
2017-Nov-15 15:30N 60°10' E 024°58'0 0.3
2017-Nov-15 14:59N 60°10' E 024°58'0 0.0
2017-Nov-15 14:29N 60°10' E 024°58'0 0.0
2017-Nov-15 13:59N 60°10' E 024°58'0 0.0
2017-Nov-15 13:29N 60°10' E 024°58'0 0.0
2017-Nov-15 12:59N 60°10' E 024°58'0 0.0
2017-Nov-15 12:29N 60°10' E 024°58'0 0.0
2017-Nov-15 11:59N 60°10' E 024°58'0 0.0
2017-Nov-15 11:26N 60°10' E 024°58'0 0.0
2017-Nov-15 10:59N 60°10' E 024°58'0 0.0
2017-Nov-15 10:29N 60°10' E 024°58'0 0.0
2017-Nov-15 09:59N 60°10' E 024°58'0 0.0
2017-Nov-15 09:29N 60°10' E 024°58'0 0.0
2017-Nov-15 08:59N 60°10' E 024°58'0 0.0
2017-Nov-15 08:29N 60°10' E 024°58'0 0.3
2017-Nov-15 08:01N 60°10' E 024°58'510.3
2017-Nov-15 07:30N 60°05' E 024°52'815.4
2017-Nov-15 07:00N 60°02' E 024°38'714.7
2017-Nov-15 06:31N 59°57' E 024°27'815.3
2017-Nov-15 06:00N 59°55' E 024°13'917.9
2017-Nov-15 05:30N 59°49' E 023°58'918.3
2017-Nov-15 05:00N 59°45' E 023°43'918.3
2017-Nov-15 04:30N 59°42' E 023°25'918.4
2017-Nov-15 04:00N 59°40' E 023°07'2118.6
2017-Nov-15 02:53N 59°36' E 022°27'918.7
2017-Nov-15 02:24N 59°34' E 022°10'818.6
2017-Nov-15 01:57N 59°32' E 021°54'918.7
2017-Nov-15 01:29N 59°33' E 021°36'918.5
2017-Nov-15 01:00N 59°34' E 021°19'918.6
2017-Nov-15 00:30N 59°36' E 021°02'4511.7
2017-Nov-14 20:41N 59°57' E 019°42'516.5
2017-Nov-14 20:24N 59°53' E 019°36'716.6
2017-Nov-14 20:00N 59°48' E 019°26'816.7
2017-Nov-14 19:30N 59°44' E 019°12'816.6
2017-Nov-14 19:00N 59°40' E 018°58'611.1
2017-Nov-14 18:30N 59°37' E 018°49'612.4
2017-Nov-14 18:00N 59°34' E 018°38'510.1
2017-Nov-14 17:30N 59°31' E 018°30'611.3
2017-Nov-14 17:01N 59°26' E 018°24'510.3
2017-Nov-14 16:30N 59°21' E 018°27'510.6
2017-Nov-14 16:00N 59°22' E 018°16'510.9
2017-Nov-14 15:30N 59°19' E 018°07'0 0.8
2017-Nov-14 15:00N 59°19' E 018°06'0 0.0
2017-Nov-14 14:30N 59°19' E 018°06'0 0.0
2017-Nov-14 14:00N 59°19' E 018°06'0 0.0
2017-Nov-14 13:30N 59°19' E 018°06'0 0.0
2017-Nov-14 13:00N 59°19' E 018°06'0 0.0
2017-Nov-14 12:30N 59°19' E 018°06'0 0.0
2017-Nov-14 12:00N 59°19' E 018°06'0 0.0
2017-Nov-14 11:30N 59°19' E 018°06'0 0.0
2017-Nov-14 11:00N 59°19' E 018°06'0 0.0
2017-Nov-14 10:30N 59°19' E 018°06'0 0.0
2017-Nov-14 10:00N 59°19' E 018°06'0 0.0
2017-Nov-14 09:30N 59°19' E 018°06'0 0.0
2017-Nov-14 09:00N 59°19' E 018°06'3 5.6
2017-Nov-14 08:30N 59°20' E 018°11'611.5
2017-Nov-14 08:00N 59°23' E 018°21'3 6.2
2017-Nov-14 07:31N 59°24' E 018°27'4 8.3
2017-Nov-14 07:00N 59°28' E 018°26'510.7
2017-Nov-14 06:31N 59°32' E 018°33'510.8
2017-Nov-14 06:00N 59°35' E 018°42'612.3
2017-Nov-14 05:31N 59°38' E 018°52'611.4
2017-Nov-14 05:00N 59°42' E 019°01'714.5
2017-Nov-14 04:30N 59°45' E 019°14'714.9
2017-Nov-14 04:00N 59°50' E 019°25'815.4
2017-Nov-14 03:30N 59°54' E 019°37'815.3
2017-Nov-14 03:00N 59°60' E 019°48'4011.4
2017-Nov-13 23:30N 59°38' E 020°56'917.5
2017-Nov-13 23:01N 59°36' E 021°12'917.5
2017-Nov-13 22:31N 59°34' E 021°29'1117.5
2017-Nov-13 21:52N 59°32' E 021°51'2 0.1
2017-Nov-13 01:42N 59°32' E 021°46'318.1
2017-Nov-13 01:30N 59°33' E 021°39'918.1
2017-Nov-13 01:01N 59°34' E 021°22'918.3
2017-Nov-13 00:31N 59°36' E 021°04'4811.8
2017-Nov-12 20:28N 59°55' E 019°36'816.7
2017-Nov-12 20:00N 59°50' E 019°25'816.3
2017-Nov-12 19:30N 59°44' E 019°13'816.7
2017-Nov-12 19:00N 59°41' E 018°58'611.2
2017-Nov-12 18:30N 59°37' E 018°49'612.4
2017-Nov-12 18:00N 59°34' E 018°39'510.2
2017-Nov-12 17:30N 59°31' E 018°31'611.3
2017-Nov-12 17:00N 59°26' E 018°24'510.2
2017-Nov-12 16:30N 59°22' E 018°27'510.3
2017-Nov-12 16:00N 59°22' E 018°17'611.2
2017-Nov-12 15:30N 59°19' E 018°07'1 1.2
2017-Nov-12 15:00N 59°19' E 018°06'0 0.0
2017-Nov-12 14:30N 59°19' E 018°06'0 0.0
2017-Nov-12 14:00N 59°19' E 018°06'0 0.0
2017-Nov-12 13:30N 59°19' E 018°06'0 0.0
2017-Nov-12 13:00N 59°19' E 018°06'0 0.0
2017-Nov-12 12:30N 59°19' E 018°06'0 0.0
2017-Nov-12 12:00N 59°19' E 018°06'0 0.0
2017-Nov-12 11:30N 59°19' E 018°06'0 0.0
2017-Nov-12 11:00N 59°19' E 018°06'0 0.0
2017-Nov-12 10:30N 59°19' E 018°06'0 0.0
2017-Nov-12 10:00N 59°19' E 018°06'0 0.0
2017-Nov-12 09:30N 59°19' E 018°06'0 0.0
2017-Nov-12 09:01N 59°19' E 018°06'3 5.9
2017-Nov-12 08:30N 59°20' E 018°11'611.5
2017-Nov-12 08:00N 59°22' E 018°21'3 5.6
2017-Nov-12 07:30N 59°24' E 018°26'4 7.9
2017-Nov-12 07:00N 59°28' E 018°26'510.6
2017-Nov-12 06:31N 59°32' E 018°33'510.7
2017-Nov-12 06:01N 59°35' E 018°42'612.3
2017-Nov-12 05:31N 59°38' E 018°52'612.0
2017-Nov-12 05:00N 59°42' E 019°01'815.0
2017-Nov-12 04:30N 59°45' E 019°15'714.7
2017-Nov-12 04:00N 59°49' E 019°27'815.4
2017-Nov-12 03:30N 59°54' E 019°38'4210.8
2017-Nov-11 23:36N 59°39' E 020°56'218.1
2017-Nov-11 23:30N 59°38' E 020°60'918.2
2017-Nov-11 23:00N 59°36' E 021°17'918.2
2017-Nov-11 22:30N 59°33' E 021°34'1217.8
2017-Nov-11 21:51N 59°32' E 021°57'816.7
2017-Nov-11 21:21N 59°34' E 022°13'2116.6
2017-Nov-11 20:05N 59°38' E 022°54'217.1
2017-Nov-11 19:59N 59°38' E 022°57'817.1
2017-Nov-11 19:31N 59°40' E 023°13'817.0
2017-Nov-11 19:00N 59°42' E 023°29'917.3
2017-Nov-11 18:31N 59°44' E 023°46'917.2
2017-Nov-11 17:59N 59°47' E 024°03'817.1
2017-Nov-11 17:30N 59°49' E 024°18'917.1
2017-Nov-11 17:01N 59°53' E 024°33'917.0
2017-Nov-11 16:31N 59°57' E 024°48'816.2
2017-Nov-11 16:01N 60°04' E 024°57'611.6
2017-Nov-11 15:30N 60°10' E 024°58'0 0.3
2017-Nov-11 15:00N 60°10' E 024°58'0 0.0
2017-Nov-11 14:30N 60°10' E 024°58'0 0.0
2017-Nov-11 14:00N 60°10' E 024°58'0 0.0
2017-Nov-11 13:30N 60°10' E 024°58'0 0.0
2017-Nov-11 13:00N 60°10' E 024°58'0 0.0
2017-Nov-11 12:30N 60°10' E 024°58'0 0.0
2017-Nov-11 12:00N 60°10' E 024°58'0 0.0
2017-Nov-11 11:30N 60°10' E 024°58'0 0.0
2017-Nov-11 11:00N 60°10' E 024°58'0 0.0
2017-Nov-11 10:30N 60°10' E 024°58'0 0.0
2017-Nov-11 10:00N 60°10' E 024°58'0 0.0
2017-Nov-11 09:30N 60°10' E 024°58'0 0.0
2017-Nov-11 09:00N 60°10' E 024°58'0 0.0
2017-Nov-11 08:30N 60°10' E 024°58'0 0.4
2017-Nov-11 08:00N 60°10' E 024°58'714.0
2017-Nov-11 07:31N 60°03' E 024°58'917.4
2017-Nov-11 07:01N 59°57' E 024°46'918.0
2017-Nov-11 06:31N 59°52' E 024°30'918.3
2017-Nov-11 06:01N 59°49' E 024°13'918.3
2017-Nov-11 05:30N 59°46' E 023°56'918.2
2017-Nov-11 05:01N 59°44' E 023°38'918.0
2017-Nov-11 04:31N 59°42' E 023°21'918.1
2017-Nov-11 04:00N 59°40' E 023°03'2118.0
2017-Nov-11 02:52N 59°35' E 022°24'718.4
2017-Nov-11 02:31N 59°34' E 022°11'1018.1
2017-Nov-11 01:58N 59°32' E 021°52'818.1
2017-Nov-11 01:31N 59°33' E 021°36'918.0
2017-Nov-11 01:00N 59°34' E 021°18'917.9
2017-Nov-11 00:31N 59°36' E 021°01'4511.7
2017-Nov-10 20:40N 59°56' E 019°41'316.2
2017-Nov-10 20:27N 59°54' E 019°37'816.9
2017-Nov-10 20:00N 59°48' E 019°26'816.7
2017-Nov-10 19:30N 59°44' E 019°12'816.8
2017-Nov-10 19:00N 59°40' E 018°57'611.1
2017-Nov-10 18:31N 59°37' E 018°49'612.4
2017-Nov-10 18:01N 59°34' E 018°38'510.0
2017-Nov-10 17:31N 59°31' E 018°30'611.5
2017-Nov-10 17:00N 59°26' E 018°23'5 9.7
2017-Nov-10 16:30N 59°21' E 018°26'510.3
2017-Nov-10 16:00N 59°21' E 018°15'510.6
2017-Nov-10 15:30N 59°19' E 018°06'0 0.3
2017-Nov-10 14:58N 59°19' E 018°06'0 0.0
2017-Nov-10 14:28N 59°19' E 018°06'0 0.0
2017-Nov-10 13:58N 59°19' E 018°06'0 0.0
2017-Nov-10 13:28N 59°19' E 018°06'0 0.0
2017-Nov-10 12:58N 59°19' E 018°06'0 0.0
2017-Nov-10 12:28N 59°19' E 018°06'0 0.0
2017-Nov-10 11:58N 59°19' E 018°06'0 0.0
2017-Nov-10 11:28N 59°19' E 018°06'0 0.0
2017-Nov-10 10:58N 59°19' E 018°06'0 0.0
2017-Nov-10 10:28N 59°19' E 018°06'0 0.0
2017-Nov-10 09:58N 59°19' E 018°06'0 0.0
2017-Nov-10 09:28N 59°19' E 018°06'0 0.3
2017-Nov-10 09:01N 59°19' E 018°06'5 9.6
2017-Nov-10 08:30N 59°21' E 018°15'510.1
2017-Nov-10 08:00N 59°22' E 018°24'3 6.6
2017-Nov-10 07:30N 59°25' E 018°24'611.2
2017-Nov-10 06:59N 59°30' E 018°29'510.2
2017-Nov-10 06:30N 59°33' E 018°37'612.1
2017-Nov-10 06:00N 59°36' E 018°47'611.3
2017-Nov-10 05:31N 59°40' E 018°56'816.0
2017-Nov-10 05:01N 59°44' E 019°10'1019.8
2017-Nov-10 04:31N 59°49' E 019°27'4211.2
2017-Nov-10 00:43N 59°39' E 020°49'417.8
2017-Nov-10 00:30N 59°39' E 020°56'917.2
2017-Nov-10 00:01N 59°36' E 021°13'  
Track history (hours):
 
Tides and Currents Weather Stations Pressure Air Temp Water Temp Dewpoint Dewpoint Depression Visibility Wind Speed Wind Dir Waves Ship Positions

Mariella

Last reported at 2017-Nov-19 23:36 UTC. Time now 2017-Nov-22 07:01 UTC.
Position N 59°38' E 020°55'.

Length 177 m; draft 6.7 m.

Type: Passenger vessel. MMSI: 230181000.

Date/timePositionNaut miles runAvg speedWind from/ knotsBaromVisibWave heightAir tempDewpointWater temp
2017-Nov-19 23:36N 59°38' E 020°55'217.2
2017-Nov-19 23:30N 59°38' E 020°59'817.1
2017-Nov-19 23:00N 59°36' E 021°15'817.0
2017-Nov-19 22:31N 59°34' E 021°31'1117.0
2017-Nov-19 21:53N 59°32' E 021°52'1016.9
2017-Nov-19 21:18N 59°34' E 022°11'2017.1
2017-Nov-19 20:07N 59°38' E 022°50'217.1
2017-Nov-19 20:00N 59°38' E 022°54'917.3
2017-Nov-19 19:31N 59°40' E 023°10'917.3
2017-Nov-19 19:00N 59°42' E 023°27'917.4
2017-Nov-19 18:31N 59°44' E 023°44'917.4
2017-Nov-19 18:00N 59°46' E 024°01'918.0
2017-Nov-19 17:30N 59°49' E 024°18'816.9
2017-Nov-19 17:00N 59°53' E 024°33'917.5
2017-Nov-19 16:30N 59°57' E 024°48'816.5
2017-Nov-19 16:00N 60°04' E 024°58'611.9
2017-Nov-19 15:30N 60°10' E 024°58'0 0.3
2017-Nov-19 14:59N 60°10' E 024°58'0 0.0
2017-Nov-19 14:29N 60°10' E 024°58'0 0.0
2017-Nov-19 13:59N 60°10' E 024°58'0 0.0
2017-Nov-19 13:29N 60°10' E 024°58'0 0.0
2017-Nov-19 12:59N 60°10' E 024°58'0 0.0
2017-Nov-19 12:29N 60°10' E 024°58'0 0.0
2017-Nov-19 11:59N 60°10' E 024°58'0 0.0
2017-Nov-19 11:29N 60°10' E 024°58'0 0.0
2017-Nov-19 10:59N 60°10' E 024°58'0 0.0
2017-Nov-19 10:29N 60°10' E 024°58'0 0.0
2017-Nov-19 09:59N 60°10' E 024°58'0 0.0
2017-Nov-19 09:26N 60°10' E 024°58'0 0.0
2017-Nov-19 08:59N 60°10' E 024°58'0 0.0
2017-Nov-19 08:29N 60°10' E 024°58'0 0.8
2017-Nov-19 08:01N 60°10' E 024°58'714.3
2017-Nov-19 07:30N 60°03' E 024°57'815.9
2017-Nov-19 07:00N 59°57' E 024°46'816.9
2017-Nov-19 06:30N 59°52' E 024°32'917.1
2017-Nov-19 05:59N 59°49' E 024°16'918.0
2017-Nov-19 05:30N 59°46' E 023°59'918.3
2017-Nov-19 05:00N 59°44' E 023°42'918.2
2017-Nov-19 04:30N 59°41' E 023°24'918.3
2017-Nov-19 04:00N 59°40' E 023°06'2018.3
2017-Nov-19 02:55N 59°35' E 022°28'818.3
2017-Nov-19 02:30N 59°34' E 022°13'1518.1
2017-Nov-19 01:42N 59°32' E 021°45'418.4
2017-Nov-19 01:28N 59°33' E 021°36'918.4
2017-Nov-19 01:00N 59°34' E 021°20'918.2
2017-Nov-19 00:30N 59°36' E 021°02'4511.7
2017-Nov-18 20:40N 59°57' E 019°43'717.5
2017-Nov-18 20:17N 59°52' E 019°33'517.5
2017-Nov-18 20:00N 59°48' E 019°27'917.3
2017-Nov-18 19:30N 59°44' E 019°12'816.9
2017-Nov-18 19:00N 59°40' E 018°57'611.4
2017-Nov-18 18:30N 59°37' E 018°48'612.4
2017-Nov-18 18:00N 59°34' E 018°37'510.2
2017-Nov-18 17:28N 59°30' E 018°29'511.7
2017-Nov-18 17:00N 59°26' E 018°24'4 7.9
2017-Nov-18 16:30N 59°22' E 018°25'510.5
2017-Nov-18 16:00N 59°21' E 018°14'5 9.6
2017-Nov-18 15:30N 59°19' E 018°06'0 0.2
2017-Nov-18 15:00N 59°19' E 018°06'0 0.0
2017-Nov-18 14:30N 59°19' E 018°06'0 0.0
2017-Nov-18 14:00N 59°19' E 018°06'0 0.0
2017-Nov-18 13:30N 59°19' E 018°06'0 0.0
2017-Nov-18 13:00N 59°19' E 018°06'0 0.0
2017-Nov-18 12:30N 59°19' E 018°06'0 0.0
2017-Nov-18 12:00N 59°19' E 018°06'0 0.0
2017-Nov-18 11:30N 59°19' E 018°06'0 0.0
2017-Nov-18 11:00N 59°19' E 018°06'0 0.0
2017-Nov-18 10:30N 59°19' E 018°06'0 0.0
2017-Nov-18 10:00N 59°19' E 018°06'0 0.0
2017-Nov-18 09:30N 59°19' E 018°06'0 0.0
2017-Nov-18 09:00N 59°19' E 018°06'4 7.1
2017-Nov-18 08:30N 59°20' E 018°12'611.3
2017-Nov-18 08:00N 59°22' E 018°23'2 4.9
2017-Nov-18 07:30N 59°24' E 018°26'4 7.7
2017-Nov-18 07:00N 59°28' E 018°26'510.3
2017-Nov-18 06:30N 59°32' E 018°33'511.0
2017-Nov-18 06:00N 59°35' E 018°42'612.5
2017-Nov-18 05:30N 59°38' E 018°52'611.7
2017-Nov-18 05:00N 59°42' E 019°02'815.1
2017-Nov-18 04:30N 59°45' E 019°15'815.4
2017-Nov-18 04:00N 59°49' E 019°28'815.5
2017-Nov-18 03:30N 59°55' E 019°39'4210.8
2017-Nov-17 23:38N 59°39' E 020°56'217.2
2017-Nov-17 23:31N 59°38' E 020°60'917.3
2017-Nov-17 23:01N 59°36' E 021°16'816.8
2017-Nov-17 22:31N 59°34' E 021°33'916.8
2017-Nov-17 21:59N 59°32' E 021°50'917.0
2017-Nov-17 21:28N 59°33' E 022°07'2517.0
2017-Nov-17 20:01N 59°38' E 022°54'016.8
2017-Nov-17 20:00N 59°38' E 022°55'816.8
2017-Nov-17 19:31N 59°40' E 023°11'917.1
2017-Nov-17 19:00N 59°42' E 023°28'917.1
2017-Nov-17 18:31N 59°44' E 023°44'917.1
2017-Nov-17 18:00N 59°46' E 024°01'917.4
2017-Nov-17 17:29N 59°49' E 024°18'817.2
2017-Nov-17 17:01N 59°53' E 024°32'917.4
2017-Nov-17 16:31N 59°57' E 024°47'816.2
2017-Nov-17 16:01N 60°03' E 024°57'612.7
2017-Nov-17 15:31N 60°10' E 024°58'0 0.2
2017-Nov-17 14:59N 60°10' E 024°58'0 0.0
2017-Nov-17 14:26N 60°10' E 024°58'0 0.0
2017-Nov-17 13:59N 60°10' E 024°58'0 0.0
2017-Nov-17 13:29N 60°10' E 024°58'0 0.0
2017-Nov-17 12:59N 60°10' E 024°58'0 0.0
2017-Nov-17 12:29N 60°10' E 024°58'0 0.0
2017-Nov-17 11:59N 60°10' E 024°58'0 0.0
2017-Nov-17 11:29N 60°10' E 024°58'0 0.0
2017-Nov-17 10:59N 60°10' E 024°58'0 0.0
2017-Nov-17 10:29N 60°10' E 024°58'0 0.0
2017-Nov-17 09:59N 60°10' E 024°58'0 0.0
2017-Nov-17 09:29N 60°10' E 024°58'0 0.0
2017-Nov-17 08:59N 60°10' E 024°58'0 0.0
2017-Nov-17 08:29N 60°10' E 024°58'0 0.7
2017-Nov-17 08:00N 60°10' E 024°58'714.5
2017-Nov-17 07:30N 60°02' E 024°57'917.3
2017-Nov-17 07:00N 59°56' E 024°45'918.1
2017-Nov-17 06:30N 59°52' E 024°29'1218.2
2017-Nov-17 05:51N 59°48' E 024°07'618.4
2017-Nov-17 05:31N 59°46' E 023°54'918.4
2017-Nov-17 05:00N 59°44' E 023°37'918.2
2017-Nov-17 04:30N 59°42' E 023°19'918.2
2017-Nov-17 04:00N 59°39' E 023°02'1718.2
2017-Nov-17 03:05N 59°36' E 022°29'218.1
2017-Nov-17 02:58N 59°35' E 022°25'1618.2
2017-Nov-17 02:05N 59°32' E 021°54'218.3
2017-Nov-17 01:59N 59°32' E 021°51'918.5
2017-Nov-17 01:30N 59°33' E 021°33'918.5
2017-Nov-17 01:00N 59°35' E 021°16'5211.9
2017-Nov-16 20:39N 59°57' E 019°42'317.5
2017-Nov-16 20:28N 59°54' E 019°38'817.5
2017-Nov-16 20:00N 59°48' E 019°27'917.2
2017-Nov-16 19:30N 59°44' E 019°12'917.1
2017-Nov-16 19:00N 59°40' E 018°57'611.4
2017-Nov-16 18:30N 59°37' E 018°48'612.4
2017-Nov-16 18:00N 59°34' E 018°37'510.2
2017-Nov-16 17:31N 59°30' E 018°29'611.4
2017-Nov-16 17:00N 59°26' E 018°24'4 7.7
2017-Nov-16 16:30N 59°22' E 018°24'510.5
2017-Nov-16 16:00N 59°21' E 018°14'5 9.1
2017-Nov-16 15:29N 59°19' E 018°06'0 0.1
2017-Nov-16 14:59N 59°19' E 018°06'0 0.0
2017-Nov-16 14:29N 59°19' E 018°06'0 0.0
2017-Nov-16 13:53N 59°19' E 018°06'0 0.0
2017-Nov-16 13:23N 59°19' E 018°06'0 0.0
2017-Nov-16 12:53N 59°19' E 018°06'0 0.0
2017-Nov-16 12:29N 59°19' E 018°06'0 0.0
2017-Nov-16 11:53N 59°19' E 018°06'0 0.0
2017-Nov-16 11:29N 59°19' E 018°06'0 0.0
2017-Nov-16 10:59N 59°19' E 018°06'0 0.0
2017-Nov-16 10:23N 59°19' E 018°06'0 0.0
2017-Nov-16 09:59N 59°19' E 018°06'0 0.0
2017-Nov-16 09:29N 59°19' E 018°06'0 0.0
2017-Nov-16 09:00N 59°19' E 018°06'4 7.2
2017-Nov-16 08:30N 59°20' E 018°12'510.9
2017-Nov-16 08:00N 59°22' E 018°22'3 5.2
2017-Nov-16 07:30N 59°24' E 018°26'3 5.6
2017-Nov-16 07:00N 59°26' E 018°30'611.3
2017-Nov-16 06:30N 59°32' E 018°33'511.0
2017-Nov-16 06:00N 59°35' E 018°42'612.5
2017-Nov-16 05:30N 59°38' E 018°52'611.9
2017-Nov-16 05:00N 59°42' E 019°01'715.0
2017-Nov-16 04:31N 59°45' E 019°15'815.1
2017-Nov-16 04:01N 59°49' E 019°27'815.5
2017-Nov-16 03:30N 59°54' E 019°38'4210.9
2017-Nov-15 23:38N 59°38' E 020°56'217.2
2017-Nov-15 23:30N 59°38' E 020°60'917.2
2017-Nov-15 23:00N 59°36' E 021°16'917.4
2017-Nov-15 22:31N 59°34' E 021°33'917.4
2017-Nov-15 22:00N 59°32' E 021°50'917.4
2017-Nov-15 21:28N 59°33' E 022°08'2117.5
2017-Nov-15 20:15N 59°38' E 022°50'417.6
2017-Nov-15 20:01N 59°39' E 022°57'917.5
2017-Nov-15 19:30N 59°40' E 023°14'816.9
2017-Nov-15 19:00N 59°42' E 023°31'917.0
2017-Nov-15 18:30N 59°45' E 023°47'917.1
2017-Nov-15 18:00N 59°47' E 024°04'817.2
2017-Nov-15 17:30N 59°49' E 024°20'917.1
2017-Nov-15 17:00N 59°53' E 024°35'817.0
2017-Nov-15 16:30N 59°58' E 024°49'816.6
2017-Nov-15 16:01N 60°05' E 024°58'510.2
2017-Nov-15 15:30N 60°10' E 024°58'0 0.3
2017-Nov-15 14:59N 60°10' E 024°58'0 0.0
2017-Nov-15 14:29N 60°10' E 024°58'0 0.0
2017-Nov-15 13:59N 60°10' E 024°58'0 0.0
2017-Nov-15 13:29N 60°10' E 024°58'0 0.0
2017-Nov-15 12:59N 60°10' E 024°58'0 0.0
2017-Nov-15 12:29N 60°10' E 024°58'0 0.0
2017-Nov-15 11:59N 60°10' E 024°58'0 0.0
2017-Nov-15 11:26N 60°10' E 024°58'0 0.0
2017-Nov-15 10:59N 60°10' E 024°58'0 0.0
2017-Nov-15 10:29N 60°10' E 024°58'0 0.0
2017-Nov-15 09:59N 60°10' E 024°58'0 0.0
2017-Nov-15 09:29N 60°10' E 024°58'0 0.0
2017-Nov-15 08:59N 60°10' E 024°58'0 0.0
2017-Nov-15 08:29N 60°10' E 024°58'0 0.3
2017-Nov-15 08:01N 60°10' E 024°58'510.3
2017-Nov-15 07:30N 60°05' E 024°52'815.4
2017-Nov-15 07:00N 60°02' E 024°38'714.7
2017-Nov-15 06:31N 59°57' E 024°27'815.3
2017-Nov-15 06:00N 59°55' E 024°13'917.9
2017-Nov-15 05:30N 59°49' E 023°58'918.3
2017-Nov-15 05:00N 59°45' E 023°43'918.3
2017-Nov-15 04:30N 59°42' E 023°25'918.4
2017-Nov-15 04:00N 59°40' E 023°07'2118.6
2017-Nov-15 02:53N 59°36' E 022°27'918.7
2017-Nov-15 02:24N 59°34' E 022°10'818.6
2017-Nov-15 01:57N 59°32' E 021°54'918.7
2017-Nov-15 01:29N 59°33' E 021°36'918.5
2017-Nov-15 01:00N 59°34' E 021°19'918.6
2017-Nov-15 00:30N 59°36' E 021°02'4511.7
2017-Nov-14 20:41N 59°57' E 019°42'516.5
2017-Nov-14 20:24N 59°53' E 019°36'716.6
2017-Nov-14 20:00N 59°48' E 019°26'816.7
2017-Nov-14 19:30N 59°44' E 019°12'816.6
2017-Nov-14 19:00N 59°40' E 018°58'611.1
2017-Nov-14 18:30N 59°37' E 018°49'612.4
2017-Nov-14 18:00N 59°34' E 018°38'510.1
2017-Nov-14 17:30N 59°31' E 018°30'611.3
2017-Nov-14 17:01N 59°26' E 018°24'510.3
2017-Nov-14 16:30N 59°21' E 018°27'510.6
2017-Nov-14 16:00N 59°22' E 018°16'510.9
2017-Nov-14 15:30N 59°19' E 018°07'0 0.8
2017-Nov-14 15:00N 59°19' E 018°06'0 0.0
2017-Nov-14 14:30N 59°19' E 018°06'0 0.0
2017-Nov-14 14:00N 59°19' E 018°06'0 0.0
2017-Nov-14 13:30N 59°19' E 018°06'0 0.0
2017-Nov-14 13:00N 59°19' E 018°06'0 0.0
2017-Nov-14 12:30N 59°19' E 018°06'0 0.0
2017-Nov-14 12:00N 59°19' E 018°06'0 0.0
2017-Nov-14 11:30N 59°19' E 018°06'0 0.0
2017-Nov-14 11:00N 59°19' E 018°06'0 0.0
2017-Nov-14 10:30N 59°19' E 018°06'0 0.0
2017-Nov-14 10:00N 59°19' E 018°06'0 0.0
2017-Nov-14 09:30N 59°19' E 018°06'0 0.0
2017-Nov-14 09:00N 59°19' E 018°06'3 5.6
2017-Nov-14 08:30N 59°20' E 018°11'611.5
2017-Nov-14 08:00N 59°23' E 018°21'3 6.2
2017-Nov-14 07:31N 59°24' E 018°27'4 8.3
2017-Nov-14 07:00N 59°28' E 018°26'510.7
2017-Nov-14 06:31N 59°32' E 018°33'510.8
2017-Nov-14 06:00N 59°35' E 018°42'612.3
2017-Nov-14 05:31N 59°38' E 018°52'611.4
2017-Nov-14 05:00N 59°42' E 019°01'714.5
2017-Nov-14 04:30N 59°45' E 019°14'714.9
2017-Nov-14 04:00N 59°50' E 019°25'815.4
2017-Nov-14 03:30N 59°54' E 019°37'815.3
2017-Nov-14 03:00N 59°60' E 019°48'4011.4
2017-Nov-13 23:30N 59°38' E 020°56'917.5
2017-Nov-13 23:01N 59°36' E 021°12'917.5
2017-Nov-13 22:31N 59°34' E 021°29'1117.5
2017-Nov-13 21:52N 59°32' E 021°51'2 0.1
2017-Nov-13 01:42N 59°32' E 021°46'318.1
2017-Nov-13 01:30N 59°33' E 021°39'918.1
2017-Nov-13 01:01N 59°34' E 021°22'918.3
2017-Nov-13 00:31N 59°36' E 021°04'4811.8
2017-Nov-12 20:28N 59°55' E 019°36'816.7
2017-Nov-12 20:00N 59°50' E 019°25'816.3
2017-Nov-12 19:30N 59°44' E 019°13'816.7
2017-Nov-12 19:00N 59°41' E 018°58'611.2
2017-Nov-12 18:30N 59°37' E 018°49'612.4
2017-Nov-12 18:00N 59°34' E 018°39'510.2
2017-Nov-12 17:30N 59°31' E 018°31'611.3
2017-Nov-12 17:00N 59°26' E 018°24'510.2
2017-Nov-12 16:30N 59°22' E 018°27'510.3
2017-Nov-12 16:00N 59°22' E 018°17'611.2
2017-Nov-12 15:30N 59°19' E 018°07'1 1.2
2017-Nov-12 15:00N 59°19' E 018°06'0 0.0
2017-Nov-12 14:30N 59°19' E 018°06'0 0.0
2017-Nov-12 14:00N 59°19' E 018°06'0 0.0
2017-Nov-12 13:30N 59°19' E 018°06'0 0.0
2017-Nov-12 13:00N 59°19' E 018°06'0 0.0
2017-Nov-12 12:30N 59°19' E 018°06'0 0.0
2017-Nov-12 12:00N 59°19' E 018°06'0 0.0
2017-Nov-12 11:30N 59°19' E 018°06'0 0.0
2017-Nov-12 11:00N 59°19' E 018°06'0 0.0
2017-Nov-12 10:30N 59°19' E 018°06'0 0.0
2017-Nov-12 10:00N 59°19' E 018°06'0 0.0
2017-Nov-12 09:30N 59°19' E 018°06'0 0.0
2017-Nov-12 09:01N 59°19' E 018°06'3 5.9
2017-Nov-12 08:30N 59°20' E 018°11'611.5
2017-Nov-12 08:00N 59°22' E 018°21'3 5.6
2017-Nov-12 07:30N 59°24' E 018°26'4 7.9
2017-Nov-12 07:00N 59°28' E 018°26'510.6
2017-Nov-12 06:31N 59°32' E 018°33'510.7
2017-Nov-12 06:01N 59°35' E 018°42'612.3
2017-Nov-12 05:31N 59°38' E 018°52'612.0
2017-Nov-12 05:00N 59°42' E 019°01'815.0
2017-Nov-12 04:30N 59°45' E 019°15'714.7
2017-Nov-12 04:00N 59°49' E 019°27'815.4
2017-Nov-12 03:30N 59°54' E 019°38'4210.8
2017-Nov-11 23:36N 59°39' E 020°56'218.1
2017-Nov-11 23:30N 59°38' E 020°60'918.2
2017-Nov-11 23:00N 59°36' E 021°17'918.2
2017-Nov-11 22:30N 59°33' E 021°34'1217.8
2017-Nov-11 21:51N 59°32' E 021°57'816.7
2017-Nov-11 21:21N 59°34' E 022°13'2116.6
2017-Nov-11 20:05N 59°38' E 022°54'217.1
2017-Nov-11 19:59N 59°38' E 022°57'817.1
2017-Nov-11 19:31N 59°40' E 023°13'817.0
2017-Nov-11 19:00N 59°42' E 023°29'917.3
2017-Nov-11 18:31N 59°44' E 023°46'917.2
2017-Nov-11 17:59N 59°47' E 024°03'817.1
2017-Nov-11 17:30N 59°49' E 024°18'917.1
2017-Nov-11 17:01N 59°53' E 024°33'917.0
2017-Nov-11 16:31N 59°57' E 024°48'816.2
2017-Nov-11 16:01N 60°04' E 024°57'611.6
2017-Nov-11 15:30N 60°10' E 024°58'0 0.3
2017-Nov-11 15:00N 60°10' E 024°58'0 0.0
2017-Nov-11 14:30N 60°10' E 024°58'0 0.0
2017-Nov-11 14:00N 60°10' E 024°58'0 0.0
2017-Nov-11 13:30N 60°10' E 024°58'0 0.0
2017-Nov-11 13:00N 60°10' E 024°58'0 0.0
2017-Nov-11 12:30N 60°10' E 024°58'0 0.0
2017-Nov-11 12:00N 60°10' E 024°58'0 0.0
2017-Nov-11 11:30N 60°10' E 024°58'0 0.0
2017-Nov-11 11:00N 60°10' E 024°58'0 0.0
2017-Nov-11 10:30N 60°10' E 024°58'0 0.0
2017-Nov-11 10:00N 60°10' E 024°58'0 0.0
2017-Nov-11 09:30N 60°10' E 024°58'0 0.0
2017-Nov-11 09:00N 60°10' E 024°58'0 0.0
2017-Nov-11 08:30N 60°10' E 024°58'0 0.4
2017-Nov-11 08:00N 60°10' E 024°58'714.0
2017-Nov-11 07:31N 60°03' E 024°58'917.4
2017-Nov-11 07:01N 59°57' E 024°46'918.0
2017-Nov-11 06:31N 59°52' E 024°30'918.3
2017-Nov-11 06:01N 59°49' E 024°13'918.3
2017-Nov-11 05:30N 59°46' E 023°56'918.2
2017-Nov-11 05:01N 59°44' E 023°38'918.0
2017-Nov-11 04:31N 59°42' E 023°21'918.1
2017-Nov-11 04:00N 59°40' E 023°03'2118.0
2017-Nov-11 02:52N 59°35' E 022°24'718.4
2017-Nov-11 02:31N 59°34' E 022°11'1018.1
2017-Nov-11 01:58N 59°32' E 021°52'818.1
2017-Nov-11 01:31N 59°33' E 021°36'918.0
2017-Nov-11 01:00N 59°34' E 021°18'917.9
2017-Nov-11 00:31N 59°36' E 021°01'4511.7
2017-Nov-10 20:40N 59°56' E 019°41'316.2
2017-Nov-10 20:27N 59°54' E 019°37'816.9
2017-Nov-10 20:00N 59°48' E 019°26'816.7
2017-Nov-10 19:30N 59°44' E 019°12'816.8
2017-Nov-10 19:00N 59°40' E 018°57'611.1
2017-Nov-10 18:31N 59°37' E 018°49'612.4
2017-Nov-10 18:01N 59°34' E 018°38'510.0
2017-Nov-10 17:31N 59°31' E 018°30'611.5
2017-Nov-10 17:00N 59°26' E 018°23'5 9.7
2017-Nov-10 16:30N 59°21' E 018°26'510.3
2017-Nov-10 16:00N 59°21' E 018°15'510.6
2017-Nov-10 15:30N 59°19' E 018°06'0 0.3
2017-Nov-10 14:58N 59°19' E 018°06'0 0.0
2017-Nov-10 14:28N 59°19' E 018°06'0 0.0
2017-Nov-10 13:58N 59°19' E 018°06'0 0.0
2017-Nov-10 13:28N 59°19' E 018°06'0 0.0
2017-Nov-10 12:58N 59°19' E 018°06'0 0.0
2017-Nov-10 12:28N 59°19' E 018°06'0 0.0
2017-Nov-10 11:58N 59°19' E 018°06'0 0.0
2017-Nov-10 11:28N 59°19' E 018°06'0 0.0
2017-Nov-10 10:58N 59°19' E 018°06'0 0.0
2017-Nov-10 10:28N 59°19' E 018°06'0 0.0
2017-Nov-10 09:58N 59°19' E 018°06'0 0.0
2017-Nov-10 09:28N 59°19' E 018°06'0 0.3
2017-Nov-10 09:01N 59°19' E 018°06'5 9.6
2017-Nov-10 08:30N 59°21' E 018°15'510.1
2017-Nov-10 08:00N 59°22' E 018°24'3 6.6
2017-Nov-10 07:30N 59°25' E 018°24'611.2
2017-Nov-10 06:59N 59°30' E 018°29'510.2
2017-Nov-10 06:30N 59°33' E 018°37'612.1
2017-Nov-10 06:00N 59°36' E 018°47'611.3
2017-Nov-10 05:31N 59°40' E 018°56'816.0
2017-Nov-10 05:01N 59°44' E 019°10'1019.8
2017-Nov-10 04:31N 59°49' E 019°27'4211.2
2017-Nov-10 00:43N 59°39' E 020°49'417.8
2017-Nov-10 00:30N 59°39' E 020°56'917.2
2017-Nov-10 00:01N 59°36' E 021°13'  

Dump ship's entire track history